Time;durP1;ratioP1;P1;durP2;ratioP2;P2;SDS_P1;SDS_P2;PMS_P1;PMS_P2;Temp;Humidity;BMP_temperature;BMP_pressure;BME280_temperature;BME280_humidity;BME280_pressure;Samples;Min_cycle;Max_cycle;Signal;HPM_P1;HPM_P2
2022/02/14 00:01:20;;;;;;;6.97;3.03;;;9.10;99.90;;;;;;5095000;28;20213;-60
2022/02/14 00:03:46;;;;;;;6.37;2.93;;;9.20;99.90;;;;;;5095075;28;20233;-57
2022/02/14 00:06:13;;;;;;;4.03;2.60;;;9.20;99.90;;;;;;5094882;28;20213;-57
2022/02/14 00:08:40;;;;;;;8.17;3.00;;;9.20;99.90;;;;;;5095281;28;20250;-60
2022/02/14 00:11:07;;;;;;;9.53;2.90;;;9.20;99.90;;;;;;5095285;28;20263;-59
2022/02/14 00:13:35;;;;;;;6.17;3.00;;;9.10;99.90;;;;;;5095132;28;20238;-57
2022/02/14 00:16:02;;;;;;;7.30;2.40;;;9.10;99.90;;;;;;5095220;28;20324;-57
2022/02/14 00:18:28;;;;;;;5.23;2.80;;;9.10;99.90;;;;;;5094889;28;20266;-57
2022/02/14 00:20:55;;;;;;;3.47;2.60;;;9.20;99.90;;;;;;5094445;28;20671;-55
2022/02/14 00:23:22;;;;;;;7.30;2.80;;;9.20;99.90;;;;;;5094525;28;20226;-59
2022/02/14 00:25:48;;;;;;;5.13;2.77;;;9.10;99.90;;;;;;5094425;28;20673;-58
2022/02/14 00:28:16;;;;;;;3.80;2.50;;;9.10;99.90;;;;;;5094392;28;20225;-58
2022/02/14 00:30:44;;;;;;;8.53;2.60;;;9.10;99.90;;;;;;5094647;28;20216;-60
2022/02/14 00:33:11;;;;;;;9.47;2.90;;;9.00;99.90;;;;;;5094666;28;20769;-59
2022/02/14 00:35:38;;;;;;;5.50;2.30;;;9.10;99.90;;;;;;5094180;28;20279;-59
2022/02/14 00:38:05;;;;;;;7.57;2.77;;;9.10;99.90;;;;;;5094162;28;20664;-59
2022/02/14 00:40:32;;;;;;;6.80;2.53;;;9.10;99.90;;;;;;5094006;28;20678;-59
2022/02/14 00:42:58;;;;;;;4.17;2.50;;;9.10;99.90;;;;;;5094329;28;20229;-61
2022/02/14 00:45:25;;;;;;;5.83;2.70;;;9.00;99.90;;;;;;5094237;28;20234;-60
2022/02/14 00:47:53;;;;;;;5.70;2.60;;;9.00;99.90;;;;;;5093879;28;20208;-58
2022/02/14 00:50:20;;;;;;;8.23;3.00;;;9.00;99.90;;;;;;5094875;28;20213;-58
2022/02/14 00:52:46;;;;;;;8.80;2.33;;;9.00;99.90;;;;;;5093626;28;20230;-58
2022/02/14 00:55:16;;;;;;;4.80;2.57;;;9.00;99.90;;;;;;5094426;28;20202;-57
2022/02/14 00:57:43;;;;;;;5.57;2.57;;;8.90;99.90;;;;;;5093854;28;20212;-60
2022/02/14 01:00:14;;;;;;;4.80;2.73;;;8.90;99.90;;;;;;5093803;28;20607;-61
2022/02/14 01:02:41;;;;;;;4.87;2.33;;;8.90;99.90;;;;;;5093666;28;20663;-60
2022/02/14 01:05:10;;;;;;;3.37;2.40;;;8.90;99.90;;;;;;5093824;28;20205;-58
2022/02/14 01:07:37;;;;;;;7.43;2.57;;;8.90;99.90;;;;;;5093532;28;20211;-58
2022/02/14 01:10:05;;;;;;;5.77;2.73;;;8.90;99.90;;;;;;5093515;28;20228;-57
2022/02/14 01:12:32;;;;;;;9.47;2.40;;;8.90;99.90;;;;;;5094431;28;20255;-60
2022/02/14 01:14:59;;;;;;;7.60;2.17;;;8.80;99.90;;;;;;5094800;28;20309;-59
2022/02/14 01:17:26;;;;;;;10.03;2.03;;;8.80;99.90;;;;;;5093976;28;20261;-60
2022/02/14 01:19:53;;;;;;;7.97;3.10;;;8.90;99.90;;;;;;5093739;28;20643;-57
2022/02/14 01:22:21;;;;;;;5.73;2.67;;;8.90;99.90;;;;;;5093643;28;20238;-60
2022/02/14 01:24:48;;;;;;;4.33;2.27;;;8.80;99.90;;;;;;5093321;28;20228;-58
2022/02/14 01:27:14;;;;;;;3.73;2.27;;;8.80;99.90;;;;;;5093011;28;20232;-57
2022/02/14 01:29:41;;;;;;;4.40;2.37;;;8.70;99.90;;;;;;5093208;28;20225;-57
2022/02/14 01:32:08;;;;;;;5.03;2.90;;;8.70;99.90;;;;;;5093043;28;20221;-54
2022/02/14 01:34:35;;;;;;;6.37;2.50;;;8.70;99.90;;;;;;5093031;28;20290;-57
2022/02/14 01:37:01;;;;;;;4.50;1.97;;;8.60;99.90;;;;;;5092966;28;20214;-53
2022/02/14 01:39:29;;;;;;;5.43;2.53;;;8.60;99.90;;;;;;5092689;28;20683;-59
2022/02/14 01:41:56;;;;;;;4.90;2.10;;;8.60;99.90;;;;;;5092840;28;20235;-59
2022/02/14 01:44:37;;;;;;;5.40;2.53;;;8.60;99.90;;;;;;5092664;28;20228;-58
2022/02/14 01:47:05;;;;;;;4.80;2.50;;;8.50;99.90;;;;;;5092561;28;20207;-60
2022/02/14 01:49:32;;;;;;;4.23;2.63;;;8.50;99.90;;;;;;5092847;28;20628;-59
2022/02/14 01:51:59;;;;;;;7.23;2.50;;;8.50;99.90;;;;;;5092684;28;20667;-55
2022/02/14 01:54:26;;;;;;;7.20;2.53;;;8.40;99.90;;;;;;5092575;28;20236;-56
2022/02/14 01:56:54;;;;;;;5.67;2.60;;;8.40;99.90;;;;;;5092249;28;20220;-58
2022/02/14 01:59:21;;;;;;;7.53;2.43;;;8.40;99.90;;;;;;5093091;28;20595;-60
2022/02/14 02:01:48;;;;;;;4.73;2.40;;;8.40;99.90;;;;;;5092684;28;20238;-58
2022/02/14 02:04:15;;;;;;;5.10;2.70;;;8.40;99.90;;;;;;5092666;28;20225;-57
2022/02/14 02:06:42;;;;;;;5.50;2.40;;;8.40;99.90;;;;;;5092612;28;20281;-57
2022/02/14 02:09:09;;;;;;;3.40;2.23;;;8.40;99.90;;;;;;5092347;28;20217;-59
2022/02/14 02:14:22;;;;;;;3.43;1.83;;;8.40;99.90;;;;;;5092218;28;20218;-58
2022/02/14 02:16:49;;;;;;;3.47;2.27;;;8.40;99.90;;;;;;5092320;28;20228;-57
2022/02/14 02:19:16;;;;;;;5.93;2.30;;;8.40;99.90;;;;;;5091995;28;20250;-56
2022/02/14 02:21:45;;;;;;;7.63;2.50;;;8.40;99.90;;;;;;5092083;28;20204;-55
2022/02/14 02:24:17;;;;;;;5.10;2.23;;;8.40;99.90;;;;;;5092512;28;20252;-58
2022/02/14 02:26:45;;;;;;;2.90;2.13;;;8.40;99.90;;;;;;5091591;28;20556;-56
2022/02/14 02:29:12;;;;;;;5.80;2.10;;;8.50;99.90;;;;;;5092186;28;20229;-59
2022/02/14 02:31:39;;;;;;;3.33;2.47;;;8.40;99.90;;;;;;5092042;28;20211;-58
2022/02/14 02:34:06;;;;;;;6.90;2.47;;;8.50;99.90;;;;;;5091985;28;20582;-60
2022/02/14 02:36:33;;;;;;;4.07;2.17;;;8.50;99.90;;;;;;5091906;28;20235;-58
2022/02/14 02:38:59;;;;;;;4.37;2.30;;;8.50;99.90;;;;;;5092013;28;20625;-60
2022/02/14 02:41:26;;;;;;;4.77;1.97;;;8.50;99.90;;;;;;5092101;28;20254;-59
2022/02/14 02:43:54;;;;;;;4.37;2.37;;;8.40;99.90;;;;;;5091691;28;20683;-57
2022/02/14 02:46:20;;;;;;;5.57;2.80;;;8.40;99.90;;;;;;5091963;28;20269;-59
2022/02/14 02:48:47;;;;;;;6.47;2.43;;;8.40;99.90;;;;;;5091593;28;20228;-58
2022/02/14 02:51:14;;;;;;;5.40;2.40;;;8.50;99.90;;;;;;5091901;28;20208;-57
2022/02/14 02:53:40;;;;;;;3.80;2.27;;;8.40;99.90;;;;;;5091670;28;20232;-57
2022/02/14 02:56:07;;;;;;;6.90;2.70;;;8.40;99.90;;;;;;5091649;28;20204;-56
2022/02/14 02:58:34;;;;;;;4.33;2.40;;;8.50;99.90;;;;;;5091879;28;20233;-57
2022/02/14 03:01:02;;;;;;;3.87;2.20;;;8.50;99.90;;;;;;5091465;28;20204;-56
2022/02/14 03:03:28;;;;;;;4.27;2.20;;;8.50;99.90;;;;;;5091294;28;20652;-58
2022/02/14 03:05:56;;;;;;;5.53;2.40;;;8.40;99.90;;;;;;5091367;28;20212;-54
2022/02/14 03:08:23;;;;;;;3.43;2.17;;;8.40;99.90;;;;;;5091554;28;20208;-56
2022/02/14 03:10:49;;;;;;;4.03;2.07;;;8.40;99.90;;;;;;5091264;28;20728;-59
2022/02/14 03:13:16;;;;;;;6.23;2.43;;;8.40;99.90;;;;;;5091398;28;20228;-56
2022/02/14 03:15:43;;;;;;;3.43;1.83;;;8.40;99.90;;;;;;5091025;28;20208;-57
2022/02/14 03:18:10;;;;;;;7.67;2.07;;;8.30;99.90;;;;;;5091311;28;20212;-59
2022/02/14 03:20:37;;;;;;;6.27;2.60;;;8.20;99.90;;;;;;5091781;28;20553;-54
2022/02/14 03:23:04;;;;;;;3.47;2.00;;;8.30;99.90;;;;;;5091412;28;20272;-58
2022/02/14 03:25:30;;;;;;;9.07;2.87;;;8.20;99.90;;;;;;5091442;28;20213;-60
2022/02/14 03:27:57;;;;;;;3.47;2.50;;;8.20;99.90;;;;;;5091171;28;20250;-57
2022/02/14 03:30:24;;;;;;;7.20;2.10;;;8.10;99.90;;;;;;5091182;28;20234;-58
2022/02/14 03:32:51;;;;;;;6.50;2.07;;;8.10;99.90;;;;;;5091751;28;20281;-58
2022/02/14 03:35:19;;;;;;;3.63;2.60;;;8.00;99.90;;;;;;5091658;28;20265;-57
2022/02/14 03:37:46;;;;;;;8.23;2.40;;;8.00;99.90;;;;;;5091213;28;20728;-56
2022/02/14 03:40:12;;;;;;;8.00;2.50;;;8.00;99.90;;;;;;5090995;28;20659;-58
2022/02/14 03:42:39;;;;;;;9.03;2.57;;;8.00;99.90;;;;;;5091375;28;20635;-60
2022/02/14 03:45:06;;;;;;;4.13;2.43;;;7.90;99.90;;;;;;5091226;28;20657;-57
2022/02/14 03:47:33;;;;;;;5.07;2.07;;;7.90;99.90;;;;;;5091412;28;20663;-60
2022/02/14 03:49:59;;;;;;;4.37;2.20;;;7.90;99.90;;;;;;5091642;28;20231;-59
2022/02/14 03:52:28;;;;;;;5.40;2.10;;;7.90;99.90;;;;;;5091451;28;20212;-53
2022/02/14 03:54:54;;;;;;;6.43;2.30;;;7.80;99.90;;;;;;5091430;28;20574;-56
2022/02/14 03:57:21;;;;;;;5.23;2.27;;;7.80;99.90;;;;;;5090738;28;20204;-58
2022/02/14 03:59:48;;;;;;;4.50;2.07;;;8.00;99.90;;;;;;5091244;28;20200;-54
2022/02/14 04:02:14;;;;;;;4.20;2.10;;;8.10;99.90;;;;;;5091210;28;20726;-57
2022/02/14 04:04:41;;;;;;;5.50;1.97;;;8.20;99.90;;;;;;5091032;28;20628;-57
2022/02/14 04:07:07;;;;;;;4.47;2.53;;;8.30;99.90;;;;;;5090808;28;20726;-57
2022/02/14 04:09:36;;;;;;;7.07;2.60;;;8.30;99.90;;;;;;5090713;28;20420;-56
2022/02/14 04:12:03;;;;;;;3.20;1.80;;;8.40;99.90;;;;;;5091119;28;20209;-60
2022/02/14 04:14:29;;;;;;;4.00;2.03;;;8.50;99.90;;;;;;5091071;28;20229;-58
2022/02/14 04:16:56;;;;;;;3.60;1.83;;;8.50;99.90;;;;;;5091508;28;20650;-58
2022/02/14 04:19:23;;;;;;;3.73;1.87;;;8.60;99.90;;;;;;5091239;28;20200;-57
2022/02/14 04:21:50;;;;;;;4.03;2.27;;;8.80;99.90;;;;;;5091363;28;20205;-59
2022/02/14 04:24:16;;;;;;;2.97;2.00;;;8.80;99.90;;;;;;5091354;28;20233;-59
2022/02/14 04:26:44;;;;;;;7.87;2.07;;;8.90;99.90;;;;;;5091708;28;20201;-58
2022/02/14 04:29:11;;;;;;;3.63;1.50;;;9.00;99.90;;;;;;5094768;28;20272;-58
2022/02/14 04:31:37;;;;;;;7.60;2.27;;;9.10;99.90;;;;;;5094902;28;20213;-59
2022/02/14 04:34:04;;;;;;;4.13;1.60;;;9.30;99.90;;;;;;5095181;28;20299;-60
2022/02/14 04:36:31;;;;;;;3.63;1.80;;;9.40;99.90;;;;;;5094911;28;20282;-57
2022/02/14 04:38:57;;;;;;;4.53;2.00;;;9.40;99.90;;;;;;5094210;28;20596;-58
2022/02/14 04:41:24;;;;;;;4.60;2.30;;;9.40;99.90;;;;;;5094170;28;20262;-53
2022/02/14 04:43:52;;;;;;;2.77;1.60;;;9.50;99.90;;;;;;5093877;28;20226;-57
2022/02/14 04:46:19;;;;;;;4.60;1.83;;;9.50;99.90;;;;;;5094140;28;20292;-55
2022/02/14 04:48:46;;;;;;;2.97;1.53;;;9.60;99.90;;;;;;5093926;28;20631;-58
2022/02/14 04:51:13;;;;;;;5.63;2.13;;;9.60;99.90;;;;;;5094199;28;20227;-60
2022/02/14 04:53:39;;;;;;;3.30;1.90;;;9.60;99.90;;;;;;5093938;28;20732;-56
2022/02/14 04:56:06;;;;;;;3.67;1.53;;;9.50;99.90;;;;;;5093648;28;20215;-56
2022/02/14 04:58:33;;;;;;;4.27;1.80;;;9.50;99.90;;;;;;5094108;28;20281;-58
2022/02/14 05:01:01;;;;;;;5.10;2.00;;;9.40;99.90;;;;;;5093901;28;20213;-56
2022/02/14 05:03:28;;;;;;;8.07;1.97;;;9.40;99.90;;;;;;5093939;28;20228;-54
2022/02/14 05:05:55;;;;;;;4.83;2.03;;;9.30;99.90;;;;;;5093658;28;20210;-57
2022/02/14 05:08:21;;;;;;;4.33;2.30;;;9.30;99.90;;;;;;5093430;28;20534;-59
2022/02/14 05:10:48;;;;;;;4.40;2.10;;;9.30;99.90;;;;;;5093481;28;20229;-56
2022/02/14 05:13:14;;;;;;;4.87;1.80;;;9.30;99.90;;;;;;5093533;28;20300;-54
2022/02/14 05:15:41;;;;;;;1.90;1.47;;;9.20;99.90;;;;;;5093797;28;20202;-59
2022/02/14 05:18:09;;;;;;;5.53;2.37;;;9.20;99.90;;;;;;5093409;28;20210;-55
2022/02/14 05:20:36;;;;;;;5.10;2.30;;;9.20;99.90;;;;;;5093532;28;20211;-58
2022/02/14 05:23:02;;;;;;;3.90;1.83;;;9.20;99.90;;;;;;5093295;28;20225;-56
2022/02/14 05:25:29;;;;;;;2.73;1.53;;;9.20;99.90;;;;;;5093503;28;20213;-56
2022/02/14 05:27:56;;;;;;;5.80;1.97;;;9.20;99.90;;;;;;5093373;28;20590;-59
2022/02/14 05:30:23;;;;;;;3.70;1.53;;;9.20;99.90;;;;;;5093281;28;20228;-55
2022/02/14 05:32:49;;;;;;;2.60;1.50;;;9.20;99.90;;;;;;5093149;28;20580;-59
2022/02/14 05:35:18;;;;;;;4.37;1.80;;;9.20;99.90;;;;;;5092989;28;20554;-55
2022/02/14 05:37:44;;;;;;;4.00;1.80;;;9.30;99.90;;;;;;5092282;28;20625;-57
2022/02/14 05:40:11;;;;;;;4.73;1.93;;;9.20;99.90;;;;;;5093243;28;20611;-58
2022/02/14 05:42:38;;;;;;;2.93;1.70;;;9.20;99.90;;;;;;5093000;28;20205;-57
2022/02/14 05:45:05;;;;;;;4.67;1.80;;;9.20;99.90;;;;;;5093160;28;20212;-56
2022/02/14 05:47:33;;;;;;;4.70;1.70;;;9.20;99.90;;;;;;5091167;28;20614;-60
2022/02/14 05:50:00;;;;;;;5.03;1.93;;;9.20;99.90;;;;;;5092521;28;20224;-58
2022/02/14 05:52:28;;;;;;;2.47;1.70;;;9.20;99.90;;;;;;5092635;28;20581;-57
2022/02/14 05:54:55;;;;;;;5.70;1.40;;;9.20;99.90;;;;;;5093358;28;20215;-59
2022/02/14 05:57:22;;;;;;;2.40;1.90;;;9.20;99.90;;;;;;5092846;28;20303;-58
2022/02/14 05:59:49;;;;;;;2.63;1.90;;;9.20;99.90;;;;;;5092837;28;20338;-58
2022/02/14 06:02:15;;;;;;;2.20;1.63;;;9.20;99.90;;;;;;5092821;28;20210;-58
2022/02/14 06:04:42;;;;;;;2.87;1.80;;;9.10;99.90;;;;;;5092664;28;20241;-57
2022/02/14 06:07:09;;;;;;;3.60;2.10;;;9.20;99.90;;;;;;5093272;28;20659;-60
2022/02/14 06:09:37;;;;;;;4.90;2.10;;;9.10;99.90;;;;;;5092624;28;20260;-60
2022/02/14 06:12:04;;;;;;;4.80;2.00;;;9.10;99.90;;;;;;5092308;28;20203;-60
2022/02/14 06:14:32;;;;;;;4.80;1.90;;;9.20;99.90;;;;;;5092462;28;20230;-60
2022/02/14 06:16:59;;;;;;;4.33;2.10;;;9.20;99.90;;;;;;5092219;28;20312;-60
2022/02/14 06:19:25;;;;;;;4.57;1.80;;;9.20;99.90;;;;;;5093072;28;20214;-60
2022/02/14 06:21:52;;;;;;;4.87;1.93;;;9.10;99.90;;;;;;5092501;28;20202;-64
2022/02/14 06:24:20;;;;;;;3.37;1.80;;;9.10;99.90;;;;;;5092243;28;20229;-64
2022/02/14 06:26:48;;;;;;;3.70;1.80;;;9.20;99.90;;;;;;5092277;28;20299;-66
2022/02/14 06:29:15;;;;;;;3.60;1.87;;;9.10;99.90;;;;;;5092597;28;20691;-63
2022/02/14 06:31:41;;;;;;;3.13;1.60;;;9.10;99.90;;;;;;5092255;28;20288;-61
2022/02/14 06:34:08;;;;;;;3.07;1.83;;;9.10;99.90;;;;;;5092105;28;20232;-59
2022/02/14 06:36:35;;;;;;;4.37;1.80;;;9.10;99.90;;;;;;5086781;28;20216;-60
2022/02/14 06:39:03;;;;;;;1.13;1.03;;;9.10;99.90;;;;;;5083996;28;20642;-61
2022/02/14 06:41:30;;;;;;;3.00;1.80;;;9.10;99.90;;;;;;5091540;28;20201;-60
2022/02/14 06:43:58;;;;;;;2.73;1.60;;;9.10;99.90;;;;;;5091626;28;20693;-61
2022/02/14 06:46:25;;;;;;;5.13;2.00;;;9.10;99.90;;;;;;5091213;28;20671;-60
2022/02/14 06:48:52;;;;;;;4.77;1.80;;;9.10;99.90;;;;;;5092036;28;20221;-60
2022/02/14 06:51:18;;;;;;;2.33;1.60;;;9.10;99.90;;;;;;5091727;28;20224;-60
2022/02/14 06:53:45;;;;;;;2.97;1.30;;;9.00;1.00;;;;;;5091218;28;20288;-60
2022/02/14 06:56:12;;;;;;;4.03;1.70;;;9.10;1.00;;;;;;5091386;28;20297;-60
2022/02/14 06:58:40;;;;;;;2.93;1.77;;;9.00;1.00;;;;;;5091072;28;20209;-62
2022/02/14 07:01:09;;;;;;;2.33;1.50;;;9.00;1.00;;;;;;5091357;28;20209;-62
2022/02/14 07:03:36;;;;;;;4.90;1.60;;;9.00;1.00;;;;;;5091102;28;20727;-61
2022/02/14 07:06:04;;;;;;;5.23;1.97;;;9.00;1.00;;;;;;5092117;28;20210;-61
2022/02/14 07:08:31;;;;;;;2.90;1.73;;;9.00;1.00;;;;;;5091797;28;20205;-62
2022/02/14 07:10:58;;;;;;;5.37;1.70;;;9.10;1.00;;;;;;5091201;28;20312;-61
2022/02/14 07:13:25;;;;;;;4.03;1.80;;;9.10;1.00;;;;;;5091227;28;20257;-61
2022/02/14 07:15:51;;;;;;;2.63;1.60;;;9.10;1.00;;;;;;5090915;28;20683;-62
2022/02/14 07:18:20;;;;;;;3.27;1.40;;;9.10;1.00;;;;;;5090709;28;20210;-61
2022/02/14 07:20:47;;;;;;;3.87;1.70;;;9.20;1.00;;;;;;5091505;28;20622;-62
2022/02/14 07:23:14;;;;;;;2.97;1.57;;;9.30;1.00;;;;;;5090611;28;20632;-61
2022/02/14 07:25:40;;;;;;;4.70;2.07;;;9.30;1.00;;;;;;5091513;28;20296;-62
2022/02/14 07:28:07;;;;;;;8.23;1.97;;;9.30;1.00;;;;;;5090510;28;20733;-62
2022/02/14 07:30:34;;;;;;;2.13;1.53;;;9.40;1.00;;;;;;5091348;28;20232;-61
2022/02/14 07:33:01;;;;;;;3.97;1.80;;;9.40;1.00;;;;;;5091045;28;20278;-60
2022/02/14 07:35:29;;;;;;;4.50;1.60;;;9.40;1.00;;;;;;5090789;28;20217;-58
2022/02/14 07:37:57;;;;;;;2.60;1.40;;;9.50;1.00;;;;;;5090601;28;20646;-60
2022/02/14 07:40:25;;;;;;;2.73;1.90;;;9.50;1.00;;;;;;5090818;28;20203;-61
2022/02/14 07:42:52;;;;;;;3.13;1.60;;;9.50;1.00;;;;;;5090813;28;20228;-61
2022/02/14 07:45:21;;;;;;;3.47;1.40;;;9.50;1.00;;;;;;5091048;28;20214;-62
2022/02/14 07:47:48;;;;;;;5.50;1.80;;;9.50;1.00;;;;;;5090644;28;20206;-61
2022/02/14 07:50:15;;;;;;;2.87;1.73;;;9.50;1.00;;;;;;5091005;28;20216;-64
2022/02/14 07:52:43;;;;;;;2.80;1.60;;;9.50;1.00;;;;;;5090693;28;20210;-62
2022/02/14 07:55:10;;;;;;;2.13;1.40;;;9.50;1.00;;;;;;5090755;28;20206;-59
2022/02/14 07:57:37;;;;;;;2.87;1.80;;;9.60;1.00;;;;;;5090395;28;20691;-59
2022/02/14 08:00:05;;;;;;;5.37;1.77;;;9.60;1.00;;;;;;5091055;28;20206;-63
2022/02/14 08:02:32;;;;;;;3.13;1.90;;;9.60;1.00;;;;;;5094752;28;20219;-61
2022/02/14 08:04:59;;;;;;;2.00;1.40;;;9.60;1.00;;;;;;5094319;28;20263;-62
2022/02/14 08:07:26;;;;;;;3.17;1.70;;;9.50;1.00;;;;;;5094139;28;20654;-60
2022/02/14 08:09:53;;;;;;;4.10;1.90;;;9.60;1.00;;;;;;5094446;28;20208;-59
2022/02/14 08:12:20;;;;;;;2.00;1.63;;;9.60;1.00;;;;;;5095041;28;20274;-60
2022/02/14 08:14:48;;;;;;;3.27;1.87;;;9.60;1.00;;;;;;5094657;28;20227;-59
2022/02/14 08:17:15;;;;;;;2.63;1.43;;;9.60;1.00;;;;;;5094065;28;20205;-60
2022/02/14 08:19:42;;;;;;;3.83;1.60;;;9.60;1.00;;;;;;5094678;28;20203;-61
2022/02/14 08:22:08;;;;;;;2.60;1.93;;;9.60;1.00;;;;;;5093987;28;20203;-61
2022/02/14 08:24:35;;;;;;;4.07;1.83;;;9.60;1.00;;;;;;5094394;28;20262;-60
2022/02/14 08:27:04;;;;;;;3.60;1.60;;;9.60;1.00;;;;;;5094082;28;20211;-62
2022/02/14 08:29:31;;;;;;;2.40;1.50;;;9.70;1.00;;;;;;5094095;28;20241;-63
2022/02/14 08:31:58;;;;;;;3.93;1.37;;;9.70;1.00;;;;;;5094109;28;20621;-61
2022/02/14 08:34:24;;;;;;;3.47;1.83;;;9.70;1.00;;;;;;5093669;28;20228;-62
2022/02/14 08:36:51;;;;;;;3.43;1.50;;;9.70;1.00;;;;;;5093821;28;20211;-61
2022/02/14 08:39:18;;;;;;;2.73;1.70;;;9.80;1.00;;;;;;5094113;28;20208;-61
2022/02/14 08:41:46;;;;;;;4.50;1.90;;;9.80;1.00;;;;;;5094184;28;20612;-62
2022/02/14 08:44:14;;;;;;;3.00;1.53;;;9.90;1.00;;;;;;5094172;28;20231;-62
2022/02/14 08:46:41;;;;;;;2.33;1.57;;;9.90;1.00;;;;;;5093644;28;20204;-62
2022/02/14 08:49:07;;;;;;;2.07;1.30;;;9.90;1.00;;;;;;5092459;28;20220;-61
2022/02/14 08:51:34;;;;;;;5.00;1.70;;;10.00;1.00;;;;;;5092723;28;20227;-62
2022/02/14 08:54:01;;;;;;;4.13;1.57;;;10.00;1.00;;;;;;5093839;28;20227;-61
2022/02/14 08:56:27;;;;;;;3.50;1.77;;;10.00;1.00;;;;;;5093603;28;20210;-63
2022/02/14 08:58:54;;;;;;;2.60;1.67;;;10.10;1.00;;;;;;5093374;28;20208;-61
2022/02/14 09:01:22;;;;;;;2.20;1.30;;;10.10;1.00;;;;;;5093719;28;20196;-60
2022/02/14 09:03:50;;;;;;;2.07;1.40;;;10.20;1.00;;;;;;5093081;28;20722;-61
2022/02/14 09:06:16;;;;;;;3.00;1.60;;;10.20;1.00;;;;;;5093570;28;20710;-60
2022/02/14 09:08:43;;;;;;;2.27;1.30;;;10.20;1.00;;;;;;5093367;28;20211;-61
2022/02/14 09:11:10;;;;;;;2.70;1.70;;;10.20;1.00;;;;;;5093460;28;20277;-61
2022/02/14 09:13:37;;;;;;;2.63;1.63;;;10.20;1.00;;;;;;5092527;28;20273;-63
2022/02/14 09:16:05;;;;;;;2.30;1.37;;;10.30;1.00;;;;;;5093975;28;20211;-63
2022/02/14 09:18:34;;;;;;;1.57;1.30;;;10.30;1.00;;;;;;5092690;28;20220;-65
2022/02/14 09:21:01;;;;;;;2.30;1.40;;;10.30;1.00;;;;;;5093331;28;20291;-63
2022/02/14 09:23:28;;;;;;;5.27;1.57;;;10.30;1.00;;;;;;5093063;28;20315;-64
2022/02/14 09:25:56;;;;;;;1.53;1.40;;;10.30;1.00;;;;;;5092690;28;20257;-61
2022/02/14 09:28:22;;;;;;;2.80;1.50;;;10.40;1.00;;;;;;5092363;28;20211;-59
2022/02/14 09:30:49;;;;;;;2.70;1.50;;;10.40;1.00;;;;;;5092969;28;20211;-62
2022/02/14 09:33:16;;;;;;;2.57;1.70;;;10.40;1.00;;;;;;5092680;28;20224;-61
2022/02/14 09:35:47;;;;;;;2.13;1.40;;;10.40;1.00;;;;;;5093203;28;20208;-61
2022/02/14 09:38:14;;;;;;;3.53;1.70;;;10.40;1.00;;;;;;5092593;28;20215;-62
2022/02/14 09:40:41;;;;;;;4.13;1.87;;;10.40;1.00;;;;;;5092869;28;20211;-64
2022/02/14 09:43:08;;;;;;;3.27;1.73;;;10.40;1.00;;;;;;5093059;28;20236;-62
2022/02/14 09:45:35;;;;;;;6.47;1.47;;;10.40;1.00;;;;;;5092352;28;20713;-62
2022/02/14 09:48:04;;;;;;;4.13;1.60;;;10.40;1.00;;;;;;5092577;28;20215;-62
2022/02/14 09:50:33;;;;;;;3.10;1.70;;;10.40;1.00;;;;;;5092497;28;20208;-61
2022/02/14 09:53:04;;;;;;;5.53;1.37;;;10.50;1.00;;;;;;5093703;28;20227;-64
2022/02/14 09:55:31;;;;;;;2.87;1.60;;;10.50;1.00;;;;;;5093233;28;20257;-63
2022/02/14 09:57:58;;;;;;;2.03;1.30;;;10.50;1.00;;;;;;5092125;28;20223;-65
2022/02/14 10:00:24;;;;;;;2.10;1.57;;;10.50;4.10;;;;;;5092726;28;20638;-62
2022/02/14 10:03:10;;;;;;;3.47;1.40;;;10.60;4.20;;;;;;5092165;28;20223;-62
2022/02/14 10:05:42;;;;;;;5.70;1.50;;;10.60;15.90;;;;;;5092153;28;20209;-63
2022/02/14 10:08:10;;;;;;;3.63;1.40;;;10.60;12.80;;;;;;5091684;28;20251;-62
2022/02/14 10:10:37;;;;;;;2.63;1.53;;;10.60;1.00;;;;;;5091566;28;20207;-62
2022/02/14 10:13:04;;;;;;;4.03;1.80;;;10.70;4.30;;;;;;5092112;28;20231;-61
2022/02/14 10:15:34;;;;;;;2.83;1.47;;;10.60;18.00;;;;;;5091661;28;20207;-62
2022/02/14 10:18:01;;;;;;;6.47;1.90;;;10.60;29.40;;;;;;5091470;28;20685;-62
2022/02/14 10:20:31;;;;;;;5.43;2.30;;;10.60;93.60;;;;;;5091459;28;20214;-62
2022/02/14 10:22:59;;;;;;;1.70;1.40;;;10.60;99.90;;;;;;5091256;28;20225;-61
2022/02/14 10:25:33;;;;;;;3.37;2.00;;;10.60;99.90;;;;;;5091774;28;20307;-61
2022/02/14 10:28:14;;;;;;;3.13;1.67;;;10.60;99.90;;;;;;5090818;28;20211;-61
2022/02/14 10:30:55;;;;;;;2.40;1.70;;;10.70;99.90;;;;;;5091238;28;20712;-62
2022/02/14 10:33:22;;;;;;;3.63;1.70;;;10.70;99.90;;;;;;5091075;28;20246;-63
2022/02/14 10:35:50;;;;;;;2.60;1.83;;;10.70;99.90;;;;;;5091724;28;20208;-63
2022/02/14 10:38:22;;;;;;;4.80;1.40;;;10.60;99.90;;;;;;5091319;28;20207;-63
2022/02/14 10:40:50;;;;;;;2.80;1.77;;;10.70;99.90;;;;;;5091395;28;20294;-65
2022/02/14 10:43:28;;;;;;;5.50;1.90;;;10.70;99.90;;;;;;5091973;28;20220;-63
2022/02/14 10:45:55;;;;;;;3.33;1.20;;;10.70;99.90;;;;;;5091233;28;20238;-62
2022/02/14 10:48:34;;;;;;;1.40;0.90;;;10.90;99.90;;;;;;5091193;28;20265;-62
2022/02/14 10:51:00;;;;;;;1.67;1.10;;;11.00;99.90;;;;;;5091419;28;20294;-63
2022/02/14 10:53:27;;;;;;;2.13;1.00;;;11.10;99.90;;;;;;5091463;28;20228;-62
2022/02/14 10:55:58;;;;;;;1.20;1.10;;;11.20;95.10;;;;;;5091275;28;20205;-63
2022/02/14 10:58:28;;;;;;;1.57;0.90;;;11.30;54.80;;;;;;5091268;28;20235;-63
2022/02/14 11:00:57;;;;;;;1.53;0.80;;;11.40;18.90;;;;;;5092213;28;20612;-64
2022/02/14 11:03:23;;;;;;;1.93;0.80;;;11.30;1.00;;;;;;5091218;28;20717;-64
2022/02/14 11:05:52;;;;;;;1.10;0.90;;;11.30;1.00;;;;;;5091461;28;20208;-61
2022/02/14 11:08:21;;;;;;;1.87;1.10;;;11.10;1.00;;;;;;5090695;28;20201;-61
2022/02/14 11:10:51;;;;;;;3.73;1.00;;;11.10;1.00;;;;;;5091051;28;20644;-61
2022/02/14 11:13:25;;;;;;;1.60;1.00;;;11.30;1.00;;;;;;5091442;28;20232;-61
2022/02/14 11:15:55;;;;;;;2.40;1.03;;;11.40;1.00;;;;;;5091362;28;20290;-61
2022/02/14 11:18:30;;;;;;;1.47;0.90;;;11.50;1.00;;;;;;5091835;28;20200;-60
2022/02/14 11:20:57;;;;;;;1.63;1.00;;;11.70;1.00;;;;;;5091373;28;20211;-61
2022/02/14 11:23:27;;;;;;;7.03;4.20;;;11.80;1.00;;;;;;5091444;28;20216;-62
2022/02/14 11:26:02;;;;;;;3.90;2.90;;;11.90;1.00;;;;;;5090679;28;20200;-62
2022/02/14 11:28:36;;;;;;;1.40;1.00;;;11.90;1.00;;;;;;5090922;28;20208;-62
2022/02/14 11:31:11;;;;;;;1.33;0.90;;;11.70;1.00;;;;;;5091240;28;20200;-61
2022/02/14 11:33:40;;;;;;;1.73;1.10;;;11.40;1.00;;;;;;5091039;28;20224;-58
2022/02/14 11:36:09;;;;;;;2.20;1.00;;;11.50;1.00;;;;;;5092935;28;20222;-62
2022/02/14 11:38:41;;;;;;;1.57;1.00;;;11.50;1.00;;;;;;5095152;28;20204;-64
2022/02/14 11:41:26;;;;;;;1.00;0.80;;;11.40;1.00;;;;;;5095690;28;20262;-63
2022/02/14 11:43:54;;;;;;;1.50;0.60;;;11.30;1.00;;;;;;5095196;28;20228;-63
2022/02/14 11:46:26;;;;;;;4.77;0.83;;;11.40;1.00;;;;;;5095351;28;20624;-61
2022/02/14 11:49:08;;;;;;;0.87;0.77;;;11.50;1.00;;;;;;5094888;28;20682;-60
2022/02/14 11:51:37;;;;;;;0.93;0.90;;;11.70;1.00;;;;;;5091533;28;20200;-60
2022/02/14 11:54:06;;;;;;;0.60;0.60;;;11.60;1.00;;;;;;5095167;28;20656;-59
2022/02/14 11:56:33;;;;;;;1.57;0.80;;;11.60;1.00;;;;;;5094367;28;20295;-60
2022/02/14 11:59:12;;;;;;;1.17;0.50;;;11.60;1.00;;;;;;5094926;28;20215;-59
2022/02/14 12:02:01;;;;;;;2.80;0.90;;;11.60;1.00;;;;;;5094665;28;20204;-58
2022/02/14 12:04:48;;;;;;;1.10;0.53;;;11.50;99.90;;;;;;5094516;28;20601;-59
2022/02/14 12:07:26;;;;;;;0.80;0.60;;;11.70;99.90;;;;;;5093919;28;20623;-59
2022/02/14 12:10:15;;;;;;;1.47;0.80;;;11.80;99.90;;;;;;5095124;28;20208;-59
2022/02/14 12:13:13;;;;;;;1.07;0.63;;;11.80;99.90;;;;;;5074336;28;20230;-59
2022/02/14 12:21:22;;;;;;;1.17;0.60;;;11.40;99.90;;;;;;5073674;28;20368;-62
2022/02/14 12:23:51;;;;;;;2.10;0.90;;;11.30;99.90;;;;;;5073439;28;20286;-61
2022/02/14 12:26:19;;;;;;;1.23;0.90;;;11.00;99.90;;;;;;5073609;28;20209;-63
2022/02/14 12:29:31;;;;;;;2.30;0.87;;;10.90;1.00;;;;;;5073619;28;20628;-63
2022/02/14 12:31:42;;;;;;;2.47;0.90;;;10.80;1.00;;;;;;5086798;28;20675;-62
2022/02/14 12:34:09;;;;;;;1.57;0.80;;;10.80;1.00;;;;;;5094061;28;20705;-62
2022/02/14 12:36:35;;;;;;;1.40;0.80;;;10.90;1.00;;;;;;5093833;28;20235;-62
2022/02/14 12:39:02;;;;;;;1.40;0.90;;;10.90;1.00;;;;;;5093591;28;20200;-62
2022/02/14 12:41:29;;;;;;;5.37;2.40;;;10.80;99.90;;;;;;5094249;28;20204;-63
2022/02/14 12:43:56;;;;;;;2.03;1.20;;;10.70;99.90;;;;;;5093800;28;20240;-62
2022/02/14 12:46:25;;;;;;;1.87;1.30;;;10.70;99.90;;;;;;5093798;28;20208;-58
2022/02/14 12:48:57;;;;;;;1.07;0.77;;;10.60;99.90;;;;;;5092049;28;20316;-57
2022/02/14 12:51:25;;;;;;;2.43;0.90;;;10.50;99.90;;;;;;5093988;28;20204;-56
2022/02/14 12:53:54;;;;;;;1.70;0.67;;;10.50;99.90;;;;;;5093949;28;20243;-61
2022/02/14 12:56:23;;;;;;;1.33;0.80;;;10.50;99.90;;;;;;5093288;28;20724;-60
2022/02/14 12:58:52;;;;;;;0.90;0.70;;;10.50;99.90;;;;;;5093108;28;20207;-57
2022/02/14 13:01:19;;;;;;;3.80;1.17;;;10.50;99.90;;;;;;5093050;28;20607;-60
2022/02/14 13:03:59;;;;;;;1.97;0.80;;;10.30;99.90;;;;;;5093500;28;20246;-60
2022/02/14 13:06:36;;;;;;;3.40;0.93;;;10.20;99.90;;;;;;5093438;28;20701;-60
2022/02/14 13:09:04;;;;;;;1.40;0.93;;;10.30;1.00;;;;;;5092919;28;20242;-61
2022/02/14 13:11:40;;;;;;;1.43;0.87;;;10.40;99.90;;;;;;5093260;28;20208;-61